createdAt,value
2018-12-21T00:00:55.508Z,17.60
2018-12-21T00:05:40.729Z,15.73
2018-12-21T00:10:25.755Z,19.10
2018-12-21T00:15:11.075Z,20.93
2018-12-21T00:19:57.010Z,20.77
2018-12-21T00:24:42.383Z,17.53
2018-12-21T00:29:27.285Z,18.80
2018-12-21T00:34:18.542Z,22.07
2018-12-21T00:39:08.125Z,24.67
2018-12-21T00:44:04.933Z,27.83
2018-12-21T00:48:54.124Z,21.80
2018-12-21T00:53:38.471Z,22.67
2018-12-21T00:58:24.267Z,29.10
2018-12-21T01:03:10.114Z,24.40
2018-12-21T01:07:55.937Z,26.10
2018-12-21T01:12:40.693Z,24.40
2018-12-21T01:17:26.562Z,25.33
2018-12-21T01:22:11.084Z,27.17
2018-12-21T01:26:56.940Z,26.00
2018-12-21T01:31:41.437Z,26.10
2018-12-21T01:36:27.147Z,30.90
2018-12-21T01:41:12.607Z,27.13
2018-12-21T01:45:57.923Z,26.67
2018-12-21T01:50:43.979Z,23.97
2018-12-21T01:55:29.208Z,23.13
2018-12-21T02:00:14.065Z,28.40
2018-12-21T02:04:59.295Z,29.43
2018-12-21T02:09:45.903Z,26.47
2018-12-21T02:14:31.152Z,24.77
2018-12-21T02:19:16.124Z,20.77
2018-12-21T02:24:01.588Z,20.93
2018-12-21T02:28:47.521Z,22.90
2018-12-21T02:33:32.474Z,21.27
2018-12-21T02:38:17.864Z,22.33
2018-12-21T02:43:02.420Z,24.13
2018-12-21T02:47:51.141Z,23.60
2018-12-21T02:52:36.123Z,21.47
2018-12-21T02:57:22.413Z,23.03
2018-12-21T03:02:06.965Z,24.77
2018-12-21T03:06:52.861Z,22.30
2018-12-21T03:11:38.917Z,20.07
2018-12-21T03:16:24.598Z,21.67
2018-12-21T03:21:09.664Z,21.40
2018-12-21T03:25:55.375Z,20.67
2018-12-21T03:30:39.585Z,20.93
2018-12-21T03:35:25.516Z,18.33
2018-12-21T03:40:11.877Z,18.73
2018-12-21T03:44:57.140Z,16.37
2018-12-21T03:49:41.619Z,27.77
2018-12-21T03:54:27.508Z,27.97
2018-12-21T03:59:12.751Z,22.63
2018-12-21T04:03:58.762Z,23.03
2018-12-21T04:08:43.649Z,21.03
2018-12-21T04:13:28.919Z,22.47
2018-12-21T04:18:13.134Z,23.00
2018-12-21T04:22:58.921Z,23.77
2018-12-21T04:27:45.486Z,24.33
2018-12-21T04:32:30.634Z,19.43
2018-12-21T04:37:16.041Z,22.60
2018-12-21T04:42:01.459Z,19.37
2018-12-21T04:46:48.189Z,20.63
2018-12-21T04:51:32.945Z,19.13
2018-12-21T04:56:18.720Z,19.37
2018-12-21T05:01:05.496Z,18.67
2018-12-21T05:05:50.729Z,21.20
2018-12-21T05:10:36.609Z,18.43
2018-12-21T05:15:21.439Z,19.87
2018-12-21T05:20:07.141Z,19.20
2018-12-21T05:24:51.481Z,19.20
2018-12-21T05:29:39.566Z,19.43
2018-12-21T05:34:25.325Z,18.77
2018-12-21T05:39:11.110Z,23.20
2018-12-21T05:43:56.280Z,27.37
2018-12-21T05:48:41.228Z,27.73
2018-12-21T05:53:25.461Z,29.03
2018-12-21T05:58:12.447Z,29.03
2018-12-21T06:02:57.968Z,28.53
2018-12-21T06:07:42.289Z,33.07
2018-12-21T06:12:27.812Z,32.30
2018-12-21T06:17:13.160Z,32.57
2018-12-21T06:21:59.939Z,30.97
2018-12-21T06:26:44.886Z,25.80
2018-12-21T06:31:29.353Z,28.07
2018-12-21T06:36:14.606Z,26.03
2018-12-21T06:41:01.154Z,26.00
2018-12-21T06:45:48.587Z,27.23
2018-12-21T06:50:35.300Z,29.33
2018-12-21T06:55:19.563Z,29.87
2018-12-21T07:00:07.408Z,29.27
2018-12-21T07:04:52.208Z,29.73
2018-12-21T07:09:40.728Z,32.17
2018-12-21T07:14:26.663Z,30.07
2018-12-21T07:19:12.743Z,31.77
2018-12-21T07:23:58.617Z,33.23
2018-12-21T07:28:43.236Z,31.07
2018-12-21T07:33:29.068Z,25.43
2018-12-21T07:38:14.844Z,26.93
2018-12-21T07:43:00.125Z,25.87
2018-12-21T07:47:46.030Z,23.60
2018-12-21T07:52:31.505Z,25.17
2018-12-21T07:57:18.425Z,29.20
2018-12-21T08:02:03.474Z,26.33
2018-12-21T08:06:49.168Z,23.27
2018-12-21T08:11:34.361Z,19.20
2018-12-21T08:16:19.781Z,29.20
2018-12-21T08:21:05.676Z,23.57
2018-12-21T08:25:51.661Z,21.03
2018-12-21T08:30:37.711Z,20.93
2018-12-21T08:35:21.895Z,21.17
2018-12-21T08:40:09.677Z,24.47
2018-12-21T08:44:55.480Z,25.57
2018-12-21T08:49:40.873Z,23.67
2018-12-21T08:54:25.566Z,23.73
2018-12-21T08:59:11.376Z,21.00
2018-12-21T09:03:57.082Z,23.27
2018-12-21T09:08:42.440Z,22.27
2018-12-21T09:13:27.332Z,19.30
2018-12-21T09:18:12.604Z,19.87
2018-12-21T09:22:57.917Z,23.27
2018-12-21T09:27:43.884Z,23.00
2018-12-21T09:32:29.401Z,18.47
2018-12-21T09:37:18.019Z,21.87
2018-12-21T09:42:02.319Z,21.63
2018-12-21T09:46:47.116Z,20.27
2018-12-21T09:51:32.465Z,22.90
2018-12-21T09:56:17.443Z,19.93
2018-12-21T10:01:03.299Z,30.43
2018-12-21T10:05:47.375Z,25.17
2018-12-21T10:10:32.169Z,29.97
2018-12-21T10:15:17.985Z,21.00
2018-12-21T10:20:03.384Z,19.60
2018-12-21T10:24:47.948Z,21.93
2018-12-21T10:29:36.984Z,25.40
2018-12-21T10:34:21.207Z,30.50
2018-12-21T10:39:09.489Z,28.70
2018-12-21T10:43:53.797Z,28.00
2018-12-21T10:48:39.930Z,27.27
2018-12-21T10:53:25.223Z,23.60
2018-12-21T10:58:17.066Z,29.63
2018-12-21T11:03:02.330Z,32.20
2018-12-21T11:07:46.908Z,36.47
2018-12-21T11:12:32.617Z,36.60
2018-12-21T11:17:16.714Z,33.90
2018-12-21T11:22:03.041Z,30.37
2018-12-21T11:26:48.440Z,33.30
2018-12-21T11:31:34.386Z,31.30
2018-12-21T11:36:19.564Z,21.73
2018-12-21T11:41:05.016Z,19.67
2018-12-21T11:45:50.524Z,21.20
2018-12-21T11:50:37.185Z,29.97
2018-12-21T11:55:23.036Z,27.23
2018-12-21T12:00:10.095Z,28.63
2018-12-21T12:04:54.277Z,29.80
2018-12-21T12:09:38.852Z,31.50
2018-12-21T12:14:24.324Z,27.80
2018-12-21T12:19:09.325Z,27.87
2018-12-21T12:23:55.180Z,26.77
2018-12-21T12:28:39.783Z,25.13
2018-12-21T12:33:25.916Z,24.70
2018-12-21T12:38:10.081Z,23.83
2018-12-21T12:42:54.515Z,23.47
2018-12-21T12:47:40.453Z,26.73
2018-12-21T12:52:25.664Z,31.17
2018-12-21T12:57:14.894Z,33.90
2018-12-21T13:01:59.334Z,33.77
2018-12-21T13:06:45.263Z,30.33
2018-12-21T13:11:29.818Z,30.53
2018-12-21T13:16:16.172Z,33.47
2018-12-21T13:21:00.480Z,30.83
2018-12-21T13:25:47.326Z,31.67
2018-12-21T13:30:32.662Z,28.20
2018-12-21T13:35:17.222Z,24.73
2018-12-21T13:40:03.806Z,24.17
2018-12-21T13:44:49.007Z,25.07
2018-12-21T13:49:33.557Z,21.53
2018-12-21T13:59:13.660Z,26.40
2018-12-21T14:03:59.707Z,25.70
2018-12-21T14:08:45.265Z,24.93
2018-12-21T14:13:31.202Z,25.00
2018-12-21T14:18:16.112Z,20.47
2018-12-21T14:23:01.573Z,20.20
2018-12-21T14:27:46.370Z,24.07
2018-12-21T14:32:32.253Z,26.17
2018-12-21T14:37:16.684Z,24.83
2018-12-21T14:42:02.596Z,25.17
2018-12-21T14:46:48.068Z,28.57
2018-12-21T14:51:34.510Z,29.30
2018-12-21T14:56:19.729Z,37.90
2018-12-21T15:05:55.693Z,39.17
2018-12-21T15:10:41.318Z,25.37
2018-12-21T15:15:25.825Z,24.53
2018-12-21T15:20:12.298Z,30.70
2018-12-21T15:24:56.979Z,40.73
2018-12-21T15:29:42.628Z,37.93
2018-12-21T15:34:27.754Z,25.17
2018-12-21T15:39:14.198Z,67.63
2018-12-21T15:43:59.672Z,57.77
2018-12-21T15:48:45.250Z,32.13
2018-12-21T15:53:30.128Z,31.40
2018-12-21T15:58:15.087Z,41.20
2018-12-21T16:03:01.017Z,17.67
2018-12-21T16:07:45.734Z,34.77
2018-12-21T16:12:31.644Z,21.43
2018-12-21T16:17:17.089Z,27.53
2018-12-21T16:22:03.046Z,36.17
2018-12-21T16:26:48.278Z,15.33
2018-12-21T16:31:34.197Z,16.27
2018-12-21T16:36:19.459Z,14.57
2018-12-21T16:41:04.407Z,17.43
2018-12-21T16:45:53.387Z,20.13
2018-12-21T16:50:39.037Z,52.83
2018-12-21T16:55:25.732Z,32.53
2018-12-21T17:00:12.996Z,26.60
2018-12-21T17:04:59.525Z,47.07
2018-12-21T17:09:43.869Z,26.77
2018-12-21T17:14:29.768Z,22.77
2018-12-21T17:19:18.843Z,27.33
2018-12-21T17:24:03.796Z,27.57
2018-12-21T17:28:50.164Z,23.87
2018-12-21T17:33:35.452Z,29.60
2018-12-21T17:38:20.586Z,24.23
2018-12-21T17:43:05.521Z,19.73
2018-12-21T17:47:53.901Z,26.07
2018-12-21T17:52:39.222Z,37.13
2018-12-21T17:57:24.742Z,28.13
2018-12-21T18:02:10.155Z,17.57
2018-12-21T18:06:56.653Z,16.73
2018-12-21T18:11:42.318Z,17.50
2018-12-21T18:16:29.170Z,18.90
2018-12-21T18:21:16.965Z,38.20
2018-12-21T18:26:07.117Z,29.43
2018-12-21T18:30:56.590Z,37.50
2018-12-21T18:35:41.762Z,37.23
2018-12-21T18:40:28.246Z,39.50
2018-12-21T18:45:14.002Z,33.43
2018-12-21T18:49:59.560Z,27.07
2018-12-21T18:54:46.382Z,16.30
2018-12-21T18:59:31.648Z,16.83
2018-12-21T19:04:16.822Z,26.97
2018-12-21T19:09:04.029Z,35.97
2018-12-21T19:13:48.204Z,43.63
2018-12-21T19:18:32.908Z,53.30
2018-12-21T19:23:19.194Z,52.80
2018-12-21T19:28:03.818Z,47.13
2018-12-21T19:32:50.512Z,67.93
2018-12-21T19:37:36.742Z,117.07
2018-12-21T19:42:24.647Z,95.43
2018-12-21T19:47:10.877Z,101.63
2018-12-21T19:51:57.768Z,119.43
2018-12-21T19:57:12.023Z,108.07
2018-12-21T20:01:57.528Z,103.30
2018-12-21T20:06:48.484Z,65.03
2018-12-21T20:11:32.976Z,100.93
2018-12-21T20:16:17.387Z,98.90
2018-12-21T20:21:02.713Z,80.63
2018-12-21T20:25:50.970Z,58.17
2018-12-21T20:30:35.610Z,80.37
2018-12-21T20:35:24.595Z,65.93
2018-12-21T20:40:11.690Z,59.80
2018-12-21T20:44:57.204Z,66.33
2018-12-21T20:49:48.676Z,47.90
2018-12-21T20:54:34.244Z,38.13
2018-12-21T20:59:22.413Z,27.93
2018-12-21T21:04:07.128Z,33.37
2018-12-21T21:08:53.082Z,57.13
2018-12-21T21:13:37.375Z,59.53
2018-12-21T21:18:26.938Z,40.50
2018-12-21T21:23:11.717Z,37.90
2018-12-21T21:27:58.179Z,28.70
2018-12-21T21:32:43.529Z,29.90
2018-12-21T21:37:28.852Z,31.53
2018-12-21T21:42:13.488Z,23.57
2018-12-21T21:46:59.402Z,24.13
2018-12-21T21:51:43.818Z,17.03
2018-12-21T21:56:30.293Z,14.67
2018-12-21T22:01:15.559Z,24.97
2018-12-21T22:05:59.941Z,26.93
2018-12-21T22:10:44.607Z,17.50
2018-12-21T22:15:30.341Z,15.07
2018-12-21T22:20:15.385Z,16.30
2018-12-21T22:25:00.921Z,13.43
2018-12-21T22:29:45.602Z,13.33
2018-12-21T22:34:31.097Z,14.23
2018-12-21T22:39:17.006Z,11.63
2018-12-21T22:44:01.221Z,11.23
2018-12-21T22:48:45.436Z,12.23
2018-12-21T22:53:30.197Z,15.60
2018-12-21T22:58:16.871Z,16.30
2018-12-21T23:03:01.152Z,16.80
2018-12-21T23:07:46.622Z,15.93
2018-12-21T23:12:31.221Z,24.47
2018-12-21T23:17:17.220Z,26.00
2018-12-21T23:22:02.469Z,19.00
2018-12-21T23:26:51.664Z,20.93
2018-12-21T23:31:36.101Z,17.80
2018-12-21T23:36:22.079Z,15.70
2018-12-21T23:41:07.325Z,16.37
2018-12-21T23:45:51.821Z,18.43
2018-12-21T23:50:37.620Z,18.63
2018-12-21T23:55:22.059Z,17.80
